Home > Products > Valid Products > TAF

000
FTUS43 KBIS 181700
TAFMOT
TAF
KMOT 181720Z 1818/1918 12026G35KT P6SM VCSH OVC070
     FM190100 11017KT P6SM -SHRA OVC050
     FM190700 25015G24KT P6SM FEW050=



000
FTUS43 KBIS 181700
TAFISN
TAF
KISN 181720Z 1818/1918 14018G25KT P6SM BKN100
     FM182000 14014KT P6SM -RA BKN040
     FM190200 24007KT P6SM BKN090
     FM191300 26019G26KT P6SM FEW150=



000
FTUS43 KBIS 181700
TAFBIS
TAF
KBIS 181720Z 1818/1918 13024G31KT P6SM BKN120
     FM190100 11018KT P6SM VCSH BKN050
     FM190600 29015KT P6SM SCT200=



000
FTUS43 KBIS 181700
TAFJMS
TAF
KJMS 181720Z 1818/1918 13027G36KT P6SM SCT040
     FM190500 12021G28KT P6SM VCSH BKN060
     FM191000 26014G21KT P6SM SCT020=



000
FTUS43 KBIS 181700
TAFDIK
TAF
KDIK 181720Z 1818/1918 13018G25KT P6SM BKN250
     FM190000 31018KT P6SM VCSH SCT070
     FM190600 27017G27KT P6SM FEW250=



000
FTUS43 KBIS 181100
TAFDIK
TAF
KDIK 181129Z 1812/1912 13016KT P6SM OVC100
     FM181400 13020G27KT P6SM SCT140 BKN250
     FM181900 14022G27KT P6SM VCSH SCT080 BKN110
     FM182300 16011KT P6SM VCSH BKN080 BKN100
     FM190300 31008KT P6SM SCT070 SCT150
     FM190600 27014KT P6SM FEW250=



000
FTUS43 KBIS 181100
TAFMOT
TAF
KMOT 181129Z 1812/1912 12011KT P6SM BKN050 OVC070
     FM181500 12019G27KT P6SM BKN090 OVC120
     FM182000 13025G34KT P6SM VCSH BKN050 OVC090
      TEMPO 1822/1901 -SHRA BKN035 OVC050
     FM190100 11011KT P6SM -RA BKN045 OVC060
     FM190400 VRB05KT P6SM VCSH BKN050 BKN080
     FM190700 25010KT P6SM FEW050 SCT120=



000
FTUS43 KBIS 181100
TAFBIS
TAF
KBIS 181129Z 1812/1912 12017G21KT P6SM BKN100 BKN200
     FM181500 13022G27KT P6SM BKN120 BKN200
     FM182000 14027G34KT P6SM SCT130 BKN200
     FM190100 11014KT P6SM VCSH BKN050 BKN080
     FM190600 29011KT P6SM SCT200=



000
FTUS43 KBIS 181100
TAFISN
TAF
KISN 181129Z 1812/1912 12010G18KT P6SM VCSH BKN080 OVC120
     FM181400 13018G25KT P6SM BKN100 OVC120
     FM182000 14014KT P6SM -RA BKN040 OVC070
     FM190200 19007KT P6SM BKN090
     FM190400 27008KT P6SM FEW150=



000
FTUS43 KBIS 181100
TAFJMS
TAF
KJMS 181129Z 1812/1912 12011KT P6SM BKN080 BKN110
     FM181500 12019G24KT P6SM BKN120
     FM181800 13027G36KT P6SM SCT040 BKN120
     FM190100 12021G28KT P6SM VCSH SCT040 BKN060 OVC120
     FM190900 26008KT P6SM SCT020 SCT140=



000
FTUS43 KBIS 180500
TAFJMS
TAF
KJMS 180539Z 1806/1906 11009KT P6SM BKN080
     FM181000 12011KT P6SM SCT080 BKN110
     FM181300 12018G26KT P6SM SCT070 BKN120
     FM181600 12023G33KT P6SM BKN120
     FM181800 13027G36KT P6SM SCT040 BKN120
     FM190100 12021G28KT P6SM VCSH SCT070 OVC120=



000
FTUS43 KBIS 180500
TAFBIS
TAF
KBIS 180539Z 1806/1906 12011KT P6SM SCT100 BKN130 BKN180
     FM181200 12017G23KT P6SM BKN110 BKN200
     FM181500 13021G27KT P6SM BKN120 BKN200
     FM181800 14025G33KT P6SM SCT130 BKN200
     FM190000 12015KT P6SM VCSH SCT060 BKN100=



000
FTUS43 KBIS 180500
TAFDIK
TAF
KDIK 180539Z 1806/1906 13016KT P6SM BKN090 BKN120
     FM181400 13022G28KT P6SM BKN140 BKN250
     FM182100 14024G31KT P6SM VCSH SCT080 BKN110
     FM182300 13014KT P6SM VCSH BKN080 BKN100
     FM190300 29008KT P6SM SCT070=



000
FTUS43 KBIS 180500
TAFISN
TAF
KISN 180539Z 1806/1906 12011KT P6SM VCSH BKN080 OVC120
      TEMPO 1807/1811 -RA OVC060
     FM181300 13018G25KT P6SM BKN100 OVC120
     FM182000 14014KT P6SM -RA BKN060 OVC090
     FM190100 19007KT P6SM BKN090
     FM190300 27008KT P6SM SCT120=



000
FTUS43 KBIS 180500
TAFMOT
TAF
KMOT 180539Z 1806/1906 12011KT P6SM BKN050 OVC070
     FM181400 12020G28KT P6SM BKN090 OVC120
     FM181700 13024G32KT P6SM BKN100 OVC120
     FM182200 12019G26KT P6SM VCSH BKN070 OVC110
     FM190100 11011KT P6SM -RA BKN045 OVC070
     FM190400 VRB05KT P6SM VCSH BKN050 BKN080=



000
FTUS43 KBIS 180200 AAA
TAFISN
TAF AMD
KISN 180248Z 1803/1824 12010KT P6SM BKN120
     FM180700 12014KT P6SM VCSH BKN060 OVC120
     FM181400 13015G25KT P6SM BKN070 OVC100
     FM182200 14014KT P6SM -SHRA BKN090=



000
FTUS43 KBIS 172300
TAFBIS
TAF
KBIS 172333Z 1800/1824 16012KT P6SM OVC060
     FM180200 12008KT P6SM BKN070
     FM181500 12018G26KT P6SM BKN110
     FM181900 14022G32KT P6SM BKN110=



000
FTUS43 KBIS 172300
TAFJMS
TAF
KJMS 172333Z 1800/1824 13008KT P6SM BKN090
     FM181300 11013G23KT P6SM BKN060
     FM181700 12022G32KT P6SM BKN110=



000
FTUS43 KBIS 172300
TAFDIK
TAF
KDIK 172333Z 1800/1824 14018KT P6SM BKN060
     FM182000 14022G31KT P6SM VCSH SCT060 OVC120=



000
FTUS43 KBIS 172300
TAFMOT
TAF
KMOT 172333Z 1800/1824 11010KT P6SM BKN060 OVC080
     FM181500 12018G26KT P6SM BKN090=



000
FTUS43 KBIS 172300
TAFISN
TAF
KISN 172333Z 1800/1824 15015G21KT P6SM BKN040 OVC120
     FM180300 12015KT P6SM BKN060
     FM181700 13020G29KT P6SM BKN100
     FM182200 14017G25KT P6SM -SHRA BKN090=



000
FTUS43 KBIS 171700
TAFJMS
TAF
KJMS 171720Z 1718/1818 14010KT P6SM SCT060
     FM180300 11007KT P6SM BKN060
     FM181500 13020G28KT P6SM BKN035=



000
FTUS43 KBIS 171700
TAFDIK
TAF
KDIK 171720Z 1718/1818 15018G26KT P6SM BKN025
     FM180100 12014KT P6SM BKN035
     FM181500 14017G25KT P6SM BKN050=



000
FTUS43 KBIS 171700
TAFBIS
TAF
KBIS 171720Z 1718/1818 15013G20KT P6SM BKN050
     FM180100 12012KT P6SM BKN030
     FM181500 14020G28KT P6SM BKN040=



000
FTUS43 KBIS 171700
TAFISN
TAF
KISN 171720Z 1718/1818 13015G22KT P6SM BKN040
     FM180100 12012KT P6SM BKN030
     FM180600 12010KT P6SM VCSH BKN020
     FM181400 13014KT P6SM BKN040=



000
FTUS43 KBIS 171700
TAFMOT
TAF
KMOT 171720Z 1718/1818 13012KT P6SM BKN040
     FM180100 10008KT P6SM BKN030
     FM180600 10009KT P6SM VCSH BKN020
     FM181400 12015KT P6SM BKN040=



000
FTUS43 KBIS 171100
TAFISN
TAF
KISN 171135Z 1712/1812 12012KT P6SM OVC040
     FM171500 13014KT P6SM VCSH BKN040
     FM171900 14016G22KT P6SM BKN050
     FM180300 13013KT P6SM SCT025 BKN070
      AMD NOT SKED=



000
FTUS43 KBIS 171100
TAFMOT
TAF
KMOT 171135Z 1712/1812 09008KT P6SM BKN050
     FM171500 12012KT P6SM BKN050
     FM171900 14015G22KT P6SM BKN060
     FM180300 11012KT P6SM BKN035=



000
FTUS43 KBIS 171100
TAFBIS
TAF
KBIS 171135Z 1712/1812 11010KT P6SM OVC040
     FM171600 14015G22KT P6SM BKN050
     FM180300 12012KT P6SM BKN035=



000
FTUS43 KBIS 171100
TAFDIK
TAF
KDIK 171135Z 1712/1812 13014KT P6SM -SN OVC025
     FM171600 15018G26KT P6SM SCT040 BKN070
     FM180300 13014KT P6SM BKN040 BKN070
     FM180900 14013KT P6SM BKN025 OVC060=



000
FTUS43 KBIS 171100
TAFJMS
TAF
KJMS 171135Z 1712/1812 36006KT P6SM SCT100
     FM171500 06008KT P6SM SCT070
     FM171800 10010KT P6SM SCT060
     FM180000 14012KT P6SM BKN060=



000
FTUS43 KBIS 170500
TAFISN
TAF
KISN 170520Z 1706/1806 09012KT P6SM SCT025 OVC035
     FM170900 11008KT P6SM BKN025 OVC035
     FM171400 12013KT P6SM VCSH BKN025
     FM171900 14016G22KT P6SM BKN050
     FM180300 13013KT P6SM SCT025 BKN070
      AMD NOT SKED=



000
FTUS43 KBIS 170500
TAFBIS
TAF
KBIS 170520Z 1706/1806 07008KT P6SM SCT035 OVC070
     FM171200 11008KT P6SM BKN035 OVC060
     FM171800 14015G22KT P6SM BKN050 OVC080
     FM180300 12012KT P6SM BKN035 OVC070=



000
FTUS43 KBIS 170500
TAFMOT
TAF
KMOT 170520Z 1706/1806 07009KT P6SM BKN060 OVC090
     FM171000 09007KT P6SM SCT025 BKN050 OVC080
     FM171500 12012KT P6SM BKN050 OVC090
     FM171900 14015G22KT P6SM BKN060 BKN090
     FM180300 11012KT P6SM BKN035 OVC080=



000
FTUS43 KBIS 170500
TAFJMS
TAF
KJMS 170520Z 1706/1806 02009KT P6SM SCT100
     FM171500 06008KT P6SM SCT070
     FM171800 10010KT P6SM SCT060
     FM180000 14012KT P6SM SCT040 BKN060=



000
FTUS43 KBIS 170500
TAFDIK
TAF
KDIK 170520Z 1706/1806 09009KT P6SM OVC025
     FM170900 11012KT P6SM OVC020
     FM171300 13014KT P6SM SCT020 BKN035 OVC070
     FM171800 15018G26KT P6SM SCT040 BKN070
     FM180300 13014KT P6SM BKN040 BKN070=



000
FTUS43 KBIS 170300 AAA
TAFISN
TAF AMD
KISN 170327Z 1703/1724 09012KT P6SM VCSH BKN025 OVC040
     FM170800 11008KT P6SM BKN035
     FM171400 12012KT P6SM BKN025
     FM171800 14015G22KT P6SM BKN050
      AMD NOT SKED=



000
FTUS43 KBIS 170200 AAA
TAFDIK
TAF AMD
KDIK 170206Z 1702/1724 07008KT P6SM OVC025
     FM170700 11012KT P6SM OVC025
     FM171800 15018G26KT P6SM BKN060=



000
FTUS43 KBIS 162300
TAFDIK
TAF
KDIK 162334Z 1700/1724 07010KT P6SM VCSH OVC015
     FM170700 11012KT P6SM OVC025
     FM171800 15018G26KT P6SM BKN060=



000
FTUS43 KBIS 162300
TAFBIS
TAF
KBIS 162334Z 1700/1724 05008KT P6SM BKN050
     FM171000 07006KT P6SM SCT250
     FM171200 09007KT P6SM SCT035
     FM171900 14012KT P6SM BKN080=



000
FTUS43 KBIS 162300
TAFMOT
TAF
KMOT 162334Z 1700/1724 03009KT P6SM BKN060
     FM171100 09007KT P6SM SCT120
     FM171900 12012KT P6SM BKN045=



000
FTUS43 KBIS 162300
TAFISN
TAF
KISN 162334Z 1700/1724 09012KT P6SM VCSH OVC025
     FM170800 11008KT P6SM BKN035
     FM171400 12012KT P6SM BKN025
     FM171800 14015G22KT P6SM BKN050=



000
FTUS43 KBIS 162300
TAFJMS
TAF
KJMS 162334Z 1700/1724 04013KT P6SM SCT090
     FM170500 03008KT P6SM SCT100
     FM171800 08005KT P6SM SCT060
     FM172200 14009KT P6SM BKN060=



000
FTUS43 KBIS 162000 AAA
TAFMOT
TAF AMD
KMOT 162042Z 1621/1718 05009KT P6SM OVC050
     FM171000 09005KT 6SM BR OVC018
     FM171500 12008KT P6SM BKN030=



000
FTUS43 KBIS 162000 AAA
TAFJMS
TAF AMD
KJMS 162041Z 1621/1718 05015KT P6SM SCT035
     FM170100 04015KT P6SM BKN035
     FM170600 02007KT P6SM BKN040=



000
FTUS43 KBIS 162000 AAA
TAFISN
TAF AMD
KISN 162039Z 1621/1718 10012KT P6SM OVC020
     FM170200 09010KT P6SM BKN035
     FM170900 10007KT 6SM BR OVC012
     FM171500 13012KT P6SM BKN030=



000
FTUS43 KBIS 162000 AAA
TAFBIS
TAF AMD
KBIS 162036Z 1621/1718 04013KT P6SM OVC030
     FM162200 05010KT P6SM BKN035
     FM170900 06005KT 6SM BR BKN035
     FM171400 12007KT P6SM BKN030=



000
FTUS43 KBIS 161700 RRA
TAFDIK
TAF
KDIK 161743Z 1618/1718 05012KT P6SM OVC012
     FM170000 08009KT P6SM BKN025
     FM171000 12008KT 5SM BR OVC015
     FM171500 15014KT P6SM OVC025=



000
FTUS43 KBIS 161700 RRA
TAFMOT
TAF
KMOT 161743Z 1618/1718 05013KT P6SM -SHSN BKN035
      TEMPO 1618/1621 5SM -SN OVC025
     FM162300 06010KT P6SM BKN025
     FM171000 09005KT 5SM BR OVC018
     FM171500 12008KT P6SM BKN030=



000
FTUS43 KBIS 161700 RRA
TAFBIS
TAF
KBIS 161743Z 1618/1718 05014G21KT P6SM OVC018
      TEMPO 1618/1621 6SM -SHSN
     FM170000 05010KT P6SM BKN025
     FM170900 06005KT 6SM BR BKN020
     FM171400 12007KT P6SM BKN030=



000
FTUS43 KBIS 161700 RRA
TAFJMS
TAF
KJMS 161743Z 1618/1718 06016G22KT P6SM OVC020
      TEMPO 1618/1621 6SM -SHSN
     FM170000 04015KT P6SM BKN035
     FM170600 02007KT P6SM BKN040=



000
FTUS43 KBIS 161700 RRA
TAFISN
TAF
KISN 161743Z 1618/1718 08012KT P6SM OVC018
     FM162200 08010KT P6SM BKN025
     FM170900 10007KT 6SM BR OVC012
     FM171500 13012KT P6SM BKN030=



000
FTUS43 KBIS 161600 AAA
TAFISN
TAF AMD
KISN 161620Z 1616/1712 09012KT P6SM OVC015
     FM161900 08013KT P6SM BKN030
     FM170300 09010KT 5SM BR OVC020
     FM170900 12008KT 3SM BR OVC012=



000
FTUS43 KBIS 161600 AAA
TAFBIS
TAF AMD
KBIS 161619Z 1616/1712 06015G22KT P6SM OVC015
      TEMPO 1616/1618 6SM -SHSN
     FM161800 04017G23KT P6SM BKN035
     FM170000 06013KT P6SM BKN035
     FM170800 09010KT 6SM BR BKN020=



000
FTUS43 KBIS 161600 AAA
TAFMOT
TAF AMD
KMOT 161611Z 1616/1712 05013KT P6SM -SN OVC030
      TEMPO 1616/1618 3SM -SN OVC015
     FM161800 04015KT P6SM BKN035
     FM170300 04010KT 6SM BR BKN020
     FM170900 08009KT 3SM BR OVC015=



000
FTUS43 KBIS 161600 AAA
TAFJMS
TAF AMD
KJMS 161610Z 1616/1712 06019G26KT P6SM OVC020
      TEMPO 1616/1618 6SM -SHSN OVC015
     FM162000 04020G26KT P6SM OVC025
     FM170200 03013KT P6SM BKN035=



000
FTUS43 KBIS 161100
TAFJMS
TAF
KJMS 161135Z 1612/1712 08020G26KT P6SM OVC009
     FM161400 07022G32KT 2SM -SN OVC015
      TEMPO 1615/1618 1SM -SN OVC009
     FM162000 04020G26KT P6SM OVC025
     FM170200 03013KT P6SM BKN035=



000
FTUS43 KBIS 161100
TAFDIK
TAF
KDIK 161135Z 1612/1712 05015KT P6SM SCT015
     FM161400 04016KT P6SM -SN OVC015
     FM162100 06012KT P6SM BKN035
     FM170300 11012KT P6SM BKN035
     FM170900 14010KT 5SM BR OVC020=



000
FTUS43 KBIS 161100
TAFBIS
TAF
KBIS 161135Z 1612/1712 07014G24KT 6SM -SN BKN018 OVC070
     FM161400 06015G25KT 4SM -SN SCT008 OVC018
     FM161800 04017G23KT P6SM BKN035
     FM170000 06013KT P6SM BKN035
     FM170800 09010KT 6SM BR BKN020=



000
FTUS43 KBIS 161100
TAFMOT
TAF
KMOT 161135Z 1612/1712 06015G22KT 3SM -SN OVC013
     FM161500 03017G23KT P6SM -SN BKN015 OVC025
     FM161800 04015KT P6SM BKN035
     FM170300 04010KT 6SM BR BKN020
     FM170900 08009KT 3SM BR OVC015=



000
FTUS43 KBIS 161100
TAFISN
TAF
KISN 161135Z 1612/1712 08020G26KT P6SM -SN OVC020
     FM161800 08014KT P6SM BKN035
     FM170300 09010KT 5SM BR OVC020
     FM170900 12008KT 3SM BR OVC012
      AMD NOT SKED=



000
FTUS43 KBIS 161000 AAA
TAFJMS
TAF AMD
KJMS 161011Z 1610/1706 08020G26KT P6SM OVC009
      TEMPO 1610/1614 5SM -SN BR BKN009 OVC015
     FM161400 07024G32KT 3SM -SN OVC015
     FM162000 04020G26KT P6SM BKN025 OVC035
     FM170200 03013KT P6SM BKN035=



000
FTUS43 KBIS 161000 AAA
TAFDIK
TAF AMD
KDIK 161009Z 1610/1706 06015KT P6SM SCT030 BKN080
     FM161200 09014KT 5SM BR VCSH SCT020 OVC030
     FM161500 04016KT 5SM BR OVC012
     FM162100 05012KT P6SM BKN035=



000
FTUS43 KBIS 161000 AAA
TAFBIS
TAF AMD
KBIS 161006Z 1610/1706 07020G26KT P6SM SCT035 BKN070
     FM161200 07020G26KT 4SM BR VCSH SCT015 OVC025
     FM161400 06018G23KT 4SM BR VCSH SCT008 OVC015
     FM161800 04017G23KT P6SM BKN035
     FM170000 06013KT P6SM BKN035 OVC070=



000
FTUS43 KBIS 160600 AAA
TAFISN
TAF AMD
KISN 160643Z 1607/1706 08020G26KT 3SM -SN BR SCT009 OVC015
      TEMPO 1607/1610 1SM -SN BR OVC009
     FM161000 07015G22KT 5SM BR VCSH OVC015
     FM161900 08014KT P6SM BKN035 OVC070
     FM170300 09010KT 5SM BR OVC020
      AMD NOT SKED=



000
FTUS43 KBIS 160500
TAFMOT
TAF
KMOT 160526Z 1606/1706 09020G26KT 2SM -SN BKN015 OVC025
      TEMPO 1606/1609 1SM -SN BR BKN008 OVC015
     FM160900 06020G26KT 2SM -SN BR BKN008 OVC015
     FM161300 03017G23KT 6SM BR SCT008 BKN015 OVC025
     FM161800 04015KT P6SM BKN035 OVC070
     FM170300 04010KT 6SM BR BKN020 OVC035=



000
FTUS43 KBIS 160500
TAFBIS
TAF
KBIS 160526Z 1606/1706 09020G26KT P6SM SCT035 BKN070
     FM160900 07020G26KT 4SM BR VCSH SCT015 OVC025
     FM161200 06018G23KT 4SM BR VCSH SCT008 OVC015
     FM161800 04017G23KT P6SM BKN035
     FM170000 06013KT P6SM BKN035 OVC070=



000
FTUS43 KBIS 160500
TAFJMS
TAF
KJMS 160526Z 1606/1706 09020G26KT P6SM SCT025 OVC070
     FM160800 08022G30KT 6SM -SN BR BKN015 OVC025
     FM161000 07024G32KT 3SM -SN OVC015
     FM162000 04020G26KT P6SM BKN025 OVC035
     FM170200 03013KT P6SM BKN035=



000
FTUS43 KBIS 160500
TAFDIK
TAF
KDIK 160526Z 1606/1706 09015KT P6SM SCT030 BKN090
     FM160900 09014KT 5SM BR VCSH SCT020 OVC030
     FM161100 08012KT 3SM BR VCSH OVC015
     FM161500 04016KT 5SM BR OVC012
     FM162100 05012KT P6SM BKN035=



000
FTUS43 KBIS 160500
TAFISN
TAF
KISN 160526Z 1606/1706 08020G26KT P6SM SCT035 OVC060
     FM160800 07017G23KT P6SM VCSH SCT015 OVC025
     FM161000 07015G22KT 5SM BR VCSH OVC015
     FM161900 08014KT P6SM BKN035 OVC070
     FM170300 09010KT 5SM BR OVC020
      AMD NOT SKED=



000
FTUS43 KBIS 160300 AAA
TAFMOT
TAF AMD
KMOT 160349Z 1604/1624 09016G24KT 2SM -SN OVC012
     FM161000 06013KT 5SM BR VCSH OVC025
     FM161800 04015KT P6SM BKN050=



000
FTUS43 KBIS 152300
TAFBIS
TAF
KBIS 152338Z 1600/1624 12018KT P6SM BKN070
     FM160700 05016KT 4SM -SN OVC020
     FM161500 04014KT P6SM OVC020
     FM161900 04013KT P6SM BKN050=



000
FTUS43 KBIS 152300
TAFMOT
TAF
KMOT 152338Z 1600/1624 09016G24KT P6SM OVC080
     FM160700 06013KT 5SM BR VCSH OVC025
     FM161800 04015KT P6SM BKN050=



000
FTUS43 KBIS 152300
TAFISN
TAF
KISN 152338Z 1600/1624 09020KT P6SM OVC070
     FM160900 05011KT P6SM VCSH OVC025
     FM161900 08014KT P6SM BKN050=



000
FTUS43 KBIS 152300
TAFJMS
TAF
KJMS 152338Z 1600/1624 10018KT P6SM OVC060
     FM160900 07020G27KT 3SM -SN OVC020
     FM161600 04017G23KT P6SM OVC050=



000
FTUS43 KBIS 152300
TAFDIK
TAF
KDIK 152338Z 1600/1624 12014KT P6SM BKN100
     FM160300 09013KT P6SM -RASN OVC035
     FM160500 07010KT 3SM -SN OVC025
     FM161100 04008KT 4SM BR OVC010
     FM161600 04011KT P6SM OVC050=



    US Dept of Commerce
    National Oceanic and Atmospheric Administration
    National Weather Service
    1325 East West Highway
    Silver Spring, MD 20910
    Page Author: NWS Internet Services Team
Disclaimer
Information Quality
Credits
Glossary
Privacy Policy
Freedom of Information Act (FOIA)
About Us
Career Opportunities